createdAt,value
2022-12-13T00:01:48.257Z,38.77
2022-12-13T00:04:18.962Z,42.43
2022-12-13T00:06:47.699Z,38.47
2022-12-13T00:09:16.968Z,36.17
2022-12-13T00:11:46.651Z,37.07
2022-12-13T00:14:16.255Z,38.80
2022-12-13T00:16:47.216Z,43.47
2022-12-13T00:19:17.602Z,36.40
2022-12-13T00:21:45.998Z,38.63
2022-12-13T00:24:14.634Z,36.90
2022-12-13T00:26:43.305Z,34.20
2022-12-13T00:29:13.907Z,39.60
2022-12-13T00:34:33.112Z,35.63
2022-12-13T00:37:01.975Z,36.50
2022-12-13T00:39:30.443Z,31.93
2022-12-13T00:41:59.852Z,33.47
2022-12-13T00:44:28.398Z,32.57
2022-12-13T00:46:56.644Z,35.57
2022-12-13T00:49:25.363Z,32.70
2022-12-13T00:51:55.160Z,33.53
2022-12-13T00:54:24.122Z,33.83
2022-12-13T00:56:53.150Z,32.13
2022-12-13T00:59:21.890Z,31.30
2022-12-13T01:01:50.414Z,30.33
2022-12-13T01:04:18.679Z,30.87
2022-12-13T01:06:50.040Z,33.67
2022-12-13T01:09:21.949Z,31.80
2022-12-13T01:11:51.939Z,35.67
2022-12-13T01:14:20.581Z,34.63
2022-12-13T01:16:49.222Z,37.53
2022-12-13T01:19:18.673Z,37.50
2022-12-13T01:21:47.252Z,30.57
2022-12-13T01:24:16.002Z,30.83
2022-12-13T01:26:45.650Z,30.37
2022-12-13T01:29:14.839Z,34.63
2022-12-13T01:31:43.577Z,34.97
2022-12-13T01:34:13.373Z,35.07
2022-12-13T01:36:43.378Z,32.37
2022-12-13T01:39:14.655Z,32.33
2022-12-13T01:41:46.833Z,31.77
2022-12-13T01:44:52.616Z,30.23
2022-12-13T01:47:25.244Z,36.10
2022-12-13T01:49:56.527Z,33.43
2022-12-13T01:52:32.153Z,33.73
2022-12-13T01:55:03.528Z,34.30
2022-12-13T01:57:36.236Z,33.57
2022-12-13T02:00:08.310Z,31.40
2022-12-13T02:02:37.518Z,32.37
2022-12-13T02:05:11.397Z,34.13
2022-12-13T02:07:42.352Z,33.17
2022-12-13T02:10:11.758Z,31.00
2022-12-13T02:12:43.000Z,37.10
2022-12-13T02:15:14.968Z,33.03
2022-12-13T02:17:59.776Z,31.60
2022-12-13T02:21:10.081Z,33.23
2022-12-13T02:24:28.845Z,31.23
2022-12-13T02:27:12.150Z,32.30
2022-12-13T02:30:17.200Z,30.57
2022-12-13T02:33:21.936Z,30.97
2022-12-13T02:35:56.240Z,37.13
2022-12-13T02:38:32.985Z,40.07
2022-12-13T02:41:11.670Z,31.17
2022-12-13T02:43:47.473Z,30.13
2022-12-13T02:46:21.289Z,32.03
2022-12-13T02:48:52.605Z,31.63
2022-12-13T02:51:21.837Z,31.57
2022-12-13T02:53:50.338Z,31.60
2022-12-13T02:56:19.118Z,33.57
2022-12-13T02:58:53.107Z,29.47
2022-12-13T03:01:40.203Z,26.33
2022-12-13T03:04:15.588Z,32.23
2022-12-13T03:06:57.730Z,31.37
2022-12-13T03:09:40.026Z,33.27
2022-12-13T03:12:37.327Z,28.97
2022-12-13T03:15:16.650Z,36.53
2022-12-13T03:17:52.135Z,32.70
2022-12-13T03:20:25.940Z,30.47
2022-12-13T03:22:55.461Z,34.47
2022-12-13T03:25:31.500Z,29.90
2022-12-13T03:28:02.105Z,28.47
2022-12-13T03:30:31.818Z,29.97
2022-12-13T03:33:02.236Z,28.83
2022-12-13T03:35:34.129Z,27.83
2022-12-13T03:38:12.585Z,33.93
2022-12-13T03:40:50.820Z,27.60
2022-12-13T03:43:22.303Z,27.80
2022-12-13T03:45:51.351Z,30.33
2022-12-13T03:48:23.057Z,29.77
2022-12-13T03:50:52.910Z,28.00
2022-12-13T03:53:23.078Z,29.97
2022-12-13T03:56:02.865Z,29.10
2022-12-13T03:58:36.640Z,32.77
2022-12-13T04:01:07.706Z,30.73
2022-12-13T04:03:38.187Z,31.37
2022-12-13T04:06:06.806Z,30.63
2022-12-13T04:08:35.427Z,29.90
2022-12-13T04:11:24.847Z,30.70
2022-12-13T04:13:52.291Z,30.60
2022-12-13T04:16:20.678Z,33.97
2022-12-13T04:18:50.766Z,31.40
2022-12-13T04:21:18.867Z,27.50
2022-12-13T04:23:46.930Z,33.47
2022-12-13T04:26:15.063Z,32.20
2022-12-13T04:28:43.306Z,33.60
2022-12-13T04:31:11.503Z,31.47
2022-12-13T04:33:39.704Z,32.30
2022-12-13T04:36:10.051Z,30.27
2022-12-13T04:38:38.145Z,34.23
2022-12-13T04:41:08.207Z,30.70
2022-12-13T04:43:36.319Z,31.20
2022-12-13T04:46:04.459Z,31.73
2022-12-13T04:48:33.464Z,35.13
2022-12-13T04:51:02.291Z,28.60
2022-12-13T04:53:32.042Z,29.40
2022-12-13T04:56:00.212Z,30.73
2022-12-13T04:58:29.302Z,29.47
2022-12-13T05:00:57.586Z,26.43
2022-12-13T05:03:25.743Z,29.30
2022-12-13T05:05:53.812Z,30.03
2022-12-13T05:08:22.071Z,27.70
2022-12-13T05:10:51.549Z,30.20
2022-12-13T05:13:19.657Z,26.70
2022-12-13T05:15:52.168Z,29.07
2022-12-13T05:18:23.200Z,30.47
2022-12-13T05:20:52.076Z,27.00
2022-12-13T05:23:22.459Z,32.87
2022-12-13T05:25:52.680Z,27.10
2022-12-13T05:28:28.139Z,23.37
2022-12-13T05:30:58.444Z,26.40
2022-12-13T05:33:27.506Z,26.20
2022-12-13T05:36:00.005Z,27.10
2022-12-13T05:38:31.455Z,30.20
2022-12-13T05:41:02.335Z,25.10
2022-12-13T05:43:42.337Z,26.67
2022-12-13T05:46:12.224Z,27.50
2022-12-13T05:48:40.496Z,23.17
2022-12-13T05:51:09.971Z,26.20
2022-12-13T05:53:40.503Z,27.40
2022-12-13T05:56:11.201Z,27.57
2022-12-13T05:58:42.901Z,29.97
2022-12-13T06:01:12.907Z,23.47
2022-12-13T06:03:41.686Z,25.70
2022-12-13T06:06:11.924Z,29.67
2022-12-13T06:08:40.601Z,25.60
2022-12-13T06:11:12.247Z,29.30
2022-12-13T06:13:43.481Z,24.97
2022-12-13T06:16:22.011Z,24.90
2022-12-13T06:19:00.965Z,26.83
2022-12-13T06:21:39.156Z,22.40
2022-12-13T06:24:14.723Z,28.50
2022-12-13T06:26:45.001Z,31.07
2022-12-13T06:29:23.800Z,27.17
2022-12-13T06:32:01.780Z,25.60
2022-12-13T06:34:32.904Z,22.17
2022-12-13T06:37:01.264Z,24.80
2022-12-13T06:39:32.287Z,26.80
2022-12-13T06:42:21.664Z,27.97
2022-12-13T06:44:56.016Z,27.73
2022-12-13T06:47:31.916Z,22.77
2022-12-13T06:50:05.622Z,26.33
2022-12-13T06:52:34.309Z,24.60
2022-12-13T06:55:02.423Z,24.43
2022-12-13T06:57:33.902Z,22.43
2022-12-13T07:00:03.435Z,26.37
2022-12-13T07:02:32.670Z,24.47
2022-12-13T07:05:00.908Z,28.53
2022-12-13T07:07:29.711Z,25.20
2022-12-13T07:09:58.129Z,27.60
2022-12-13T07:12:26.211Z,21.57
2022-12-13T07:14:56.273Z,26.23
2022-12-13T07:17:33.256Z,24.73
2022-12-13T07:20:04.595Z,26.40
2022-12-13T07:22:35.033Z,24.13
2022-12-13T07:25:05.278Z,26.87
2022-12-13T07:27:33.944Z,24.53
2022-12-13T07:30:03.680Z,28.20
2022-12-13T07:32:31.872Z,29.97
2022-12-13T07:34:59.986Z,25.77
2022-12-13T07:37:30.202Z,21.80
2022-12-13T07:40:04.041Z,26.67
2022-12-13T07:42:32.913Z,26.17
2022-12-13T07:45:01.129Z,24.80
2022-12-13T07:47:32.272Z,26.67
2022-12-13T07:50:01.666Z,24.87
2022-12-13T07:52:30.065Z,27.70
2022-12-13T07:54:58.188Z,25.93
2022-12-13T07:57:26.386Z,25.90
2022-12-13T07:59:54.441Z,28.00
2022-12-13T08:02:22.608Z,27.53
2022-12-13T08:04:54.532Z,27.30
2022-12-13T08:07:23.319Z,25.33
2022-12-13T08:09:53.247Z,22.20
2022-12-13T08:12:22.561Z,27.33
2022-12-13T08:14:53.090Z,24.50
2022-12-13T08:17:21.898Z,25.77
2022-12-13T08:19:51.327Z,21.70
2022-12-13T08:22:24.159Z,22.97
2022-12-13T08:24:52.731Z,21.63
2022-12-13T08:27:20.833Z,23.57
2022-12-13T08:29:48.947Z,20.37
2022-12-13T08:32:17.095Z,19.67
2022-12-13T08:34:45.555Z,20.13
2022-12-13T08:37:15.216Z,21.20
2022-12-13T08:39:44.559Z,19.37
2022-12-13T08:42:18.354Z,21.03
2022-12-13T08:44:48.907Z,18.83
2022-12-13T08:47:23.751Z,18.80
2022-12-13T08:49:55.095Z,19.00
2022-12-13T08:52:24.991Z,16.93
2022-12-13T08:54:53.329Z,15.70
2022-12-13T08:57:21.603Z,21.70
2022-12-13T08:59:49.675Z,19.90
2022-12-13T09:02:18.015Z,19.10
2022-12-13T09:04:46.267Z,17.73
2022-12-13T09:07:14.965Z,17.20
2022-12-13T09:09:44.417Z,19.50
2022-12-13T09:12:29.686Z,20.30
2022-12-13T09:15:01.596Z,17.77
2022-12-13T09:17:37.277Z,19.13
2022-12-13T09:20:10.319Z,18.37
2022-12-13T09:23:01.966Z,18.83
2022-12-13T09:25:37.146Z,17.13
2022-12-13T09:28:07.979Z,17.90
2022-12-13T09:30:36.390Z,17.73
2022-12-13T09:33:28.044Z,21.33
2022-12-13T09:35:53.172Z,19.37
2022-12-13T09:38:21.394Z,20.00
2022-12-13T09:40:58.332Z,19.13
2022-12-13T09:43:32.736Z,15.30
2022-12-13T09:46:13.259Z,19.50
2022-12-13T09:49:01.985Z,18.13
2022-12-13T09:51:43.570Z,18.23
2022-12-13T09:54:19.680Z,21.23
2022-12-13T09:56:51.224Z,16.80
2022-12-13T09:59:20.265Z,19.00
2022-12-13T10:01:48.614Z,17.57
2022-12-13T10:04:17.415Z,13.67
2022-12-13T10:06:45.530Z,18.87
2022-12-13T10:09:15.248Z,17.77
2022-12-13T10:11:52.295Z,15.00
2022-12-13T10:14:26.288Z,18.37
2022-12-13T10:16:57.891Z,16.97
2022-12-13T10:19:34.202Z,17.17
2022-12-13T10:22:04.449Z,17.10
2022-12-13T10:24:49.772Z,17.70
2022-12-13T10:27:21.414Z,14.17
2022-12-13T10:30:03.964Z,15.93
2022-12-13T10:32:37.833Z,15.00
2022-12-13T10:35:21.605Z,16.00
2022-12-13T10:37:49.786Z,12.90
2022-12-13T10:40:33.063Z,14.83
2022-12-13T10:43:14.276Z,14.67
2022-12-13T10:45:43.615Z,15.57
2022-12-13T10:48:21.519Z,13.30
2022-12-13T10:51:02.852Z,13.23
2022-12-13T10:53:34.238Z,14.17
2022-12-13T10:56:04.086Z,13.63
2022-12-13T10:58:41.865Z,15.17
2022-12-13T11:01:20.420Z,11.93
2022-12-13T11:04:02.721Z,13.57
2022-12-13T11:06:47.181Z,12.23
2022-12-13T11:09:22.784Z,12.70
2022-12-13T11:11:58.834Z,13.00
2022-12-13T11:14:32.736Z,12.63
2022-12-13T11:17:08.271Z,13.40
2022-12-13T11:19:41.809Z,15.40
2022-12-13T11:22:11.428Z,13.90
2022-12-13T11:24:42.315Z,12.03
2022-12-13T11:27:29.690Z,17.00
2022-12-13T11:30:16.134Z,11.57
2022-12-13T11:33:12.560Z,13.57
2022-12-13T11:35:54.636Z,13.00
2022-12-13T11:38:31.128Z,14.07
2022-12-13T11:41:04.160Z,12.97
2022-12-13T11:43:38.813Z,14.50
2022-12-13T11:46:17.149Z,12.90
2022-12-13T11:48:51.646Z,12.17
2022-12-13T11:51:27.486Z,15.07
2022-12-13T11:54:01.006Z,14.60
2022-12-13T11:56:32.285Z,11.57
2022-12-13T11:59:20.752Z,13.70
2022-12-13T12:02:04.809Z,13.20
2022-12-13T12:04:39.914Z,12.07
2022-12-13T12:07:31.919Z,15.83
2022-12-13T12:10:19.059Z,12.53
2022-12-13T12:12:51.722Z,12.40
2022-12-13T12:15:26.574Z,15.77
2022-12-13T12:18:00.823Z,15.50
2022-12-13T12:20:52.805Z,13.55
2022-12-13T12:23:40.037Z,11.60
2022-12-13T12:26:15.564Z,12.70
2022-12-13T12:29:02.251Z,11.63
2022-12-13T12:31:50.446Z,13.63
2022-12-13T12:34:31.074Z,13.40
2022-12-13T12:37:12.784Z,15.50
2022-12-13T12:39:48.468Z,16.80
2022-12-13T12:42:56.527Z,16.07
2022-12-13T12:45:56.251Z,17.53
2022-12-13T12:48:53.770Z,14.03
2022-12-13T12:51:35.411Z,14.67
2022-12-13T12:54:26.187Z,14.17
2022-12-13T12:57:07.569Z,15.90
2022-12-13T12:59:43.715Z,16.30
2022-12-13T13:02:20.020Z,15.03
2022-12-13T13:04:53.628Z,13.63
2022-12-13T13:07:28.302Z,13.80
2022-12-13T13:09:57.873Z,14.37
2022-12-13T13:12:45.540Z,15.80
2022-12-13T13:15:45.065Z,16.50
2022-12-13T13:18:44.515Z,14.37
2022-12-13T13:21:48.369Z,17.70
2022-12-13T13:24:24.004Z,16.37
2022-12-13T13:26:54.559Z,14.97
2022-12-13T13:29:31.219Z,15.60
2022-12-13T13:32:02.587Z,16.43
2022-12-13T13:34:32.897Z,16.80
2022-12-13T13:37:02.573Z,15.30
2022-12-13T13:39:58.619Z,15.07
2022-12-13T13:42:28.850Z,18.93
2022-12-13T13:45:23.612Z,18.97
2022-12-13T13:48:14.249Z,20.00
2022-12-13T13:51:49.450Z,19.07
2022-12-13T13:55:19.115Z,14.90
2022-12-13T13:58:24.232Z,23.53
2022-12-13T14:01:28.500Z,17.13
2022-12-13T14:04:51.770Z,14.00
2022-12-13T14:07:50.785Z,15.50
2022-12-13T14:10:32.834Z,15.23
2022-12-13T14:13:48.509Z,16.87
2022-12-13T14:16:46.592Z,15.27
2022-12-13T14:19:56.623Z,17.13
2022-12-13T14:22:33.731Z,17.70
2022-12-13T14:25:24.485Z,16.60
2022-12-13T14:28:00.847Z,21.87
2022-12-13T14:30:30.624Z,21.43
2022-12-13T14:32:59.392Z,19.80
2022-12-13T14:35:28.710Z,17.67
2022-12-13T14:37:59.066Z,17.47
2022-12-13T14:40:31.266Z,18.63
2022-12-13T14:43:00.009Z,22.77
2022-12-13T14:45:30.967Z,17.17
2022-12-13T14:48:01.345Z,18.73
2022-12-13T14:50:34.173Z,21.83
2022-12-13T14:53:03.276Z,18.47
2022-12-13T14:55:33.519Z,17.87
2022-12-13T14:58:03.851Z,20.63
2022-12-13T15:00:36.863Z,24.03
2022-12-13T15:03:05.790Z,21.10
2022-12-13T15:05:48.849Z,21.57
2022-12-13T15:08:21.461Z,23.37
2022-12-13T15:10:52.158Z,22.43
2022-12-13T15:13:29.369Z,23.87
2022-12-13T15:16:01.870Z,21.63
2022-12-13T15:18:38.957Z,19.53
2022-12-13T15:21:21.577Z,24.17
2022-12-13T15:23:50.536Z,22.10
2022-12-13T15:26:28.853Z,20.67
2022-12-13T15:29:00.756Z,23.67
2022-12-13T15:31:34.353Z,24.73
2022-12-13T15:34:28.989Z,22.20
2022-12-13T15:36:58.995Z,22.97
2022-12-13T15:39:31.116Z,23.97
2022-12-13T15:42:00.824Z,25.53
2022-12-13T15:44:31.415Z,22.10
2022-12-13T15:47:05.210Z,20.97
2022-12-13T15:49:36.520Z,23.00
2022-12-13T15:52:07.245Z,22.80
2022-12-13T15:54:35.550Z,26.83
2022-12-13T15:57:13.674Z,23.87
2022-12-13T15:59:43.136Z,22.10
2022-12-13T16:02:18.090Z,22.50
2022-12-13T16:04:46.366Z,21.30
2022-12-13T16:07:23.884Z,24.93
2022-12-13T16:09:53.610Z,20.90
2022-12-13T16:12:27.187Z,22.03
2022-12-13T16:15:13.973Z,21.43
2022-12-13T16:18:07.655Z,22.63
2022-12-13T16:20:36.288Z,21.50
2022-12-13T16:23:08.875Z,20.47
2022-12-13T16:25:37.440Z,24.00
2022-12-13T16:28:05.853Z,23.70
2022-12-13T16:31:03.891Z,25.17
2022-12-13T16:33:33.779Z,21.13
2022-12-13T16:36:02.152Z,19.47
2022-12-13T16:38:30.227Z,22.23
2022-12-13T16:41:08.740Z,21.37
2022-12-13T16:43:41.172Z,23.00
2022-12-13T16:47:12.821Z,20.50
2022-12-13T16:49:09.992Z,20.50
2022-12-13T16:51:39.620Z,21.73
2022-12-13T16:54:10.105Z,20.37
2022-12-13T16:56:38.263Z,22.00
2022-12-13T16:59:06.385Z,19.97
2022-12-13T17:01:34.589Z,21.87
2022-12-13T17:04:10.924Z,18.07
2022-12-13T17:06:41.452Z,22.57
2022-12-13T17:09:09.637Z,21.07
2022-12-13T17:11:38.557Z,23.17
2022-12-13T17:14:06.937Z,25.00
2022-12-13T17:16:35.089Z,22.47
2022-12-13T17:19:04.750Z,20.10
2022-12-13T17:21:33.175Z,17.83
2022-12-13T17:24:03.364Z,20.03
2022-12-13T17:26:32.025Z,21.87
2022-12-13T17:29:00.127Z,20.17
2022-12-13T17:31:34.984Z,18.60
2022-12-13T17:34:05.430Z,21.27
2022-12-13T17:36:33.870Z,19.53
2022-12-13T17:39:02.139Z,20.43
2022-12-13T17:41:30.659Z,19.50
2022-12-13T17:44:00.851Z,18.20
2022-12-13T17:46:29.111Z,21.57
2022-12-13T17:48:57.384Z,21.90
2022-12-13T17:51:26.893Z,23.43
2022-12-13T17:53:55.386Z,23.33
2022-12-13T17:56:23.505Z,23.07
2022-12-13T17:58:51.714Z,17.07
2022-12-13T18:01:21.853Z,21.33
2022-12-13T18:03:52.673Z,18.20
2022-12-13T18:06:20.770Z,20.03
2022-12-13T18:08:50.583Z,20.43
2022-12-13T18:11:35.879Z,19.67
2022-12-13T18:14:05.172Z,24.07
2022-12-13T18:16:38.392Z,19.83
2022-12-13T18:19:08.230Z,22.40
2022-12-13T18:21:37.420Z,17.50
2022-12-13T18:24:08.141Z,20.93
2022-12-13T18:26:36.341Z,20.83
2022-12-13T18:29:05.138Z,19.20
2022-12-13T18:31:33.648Z,23.97
2022-12-13T18:34:01.989Z,21.10
2022-12-13T18:36:30.326Z,21.87
2022-12-13T18:38:58.536Z,22.90
2022-12-13T18:41:30.027Z,21.33
2022-12-13T18:44:00.274Z,19.77
2022-12-13T18:46:29.425Z,20.00
2022-12-13T18:48:58.005Z,19.77
2022-12-13T18:51:26.869Z,21.20
2022-12-13T18:53:56.205Z,19.00
2022-12-13T18:56:25.900Z,18.60
2022-12-13T18:58:55.940Z,20.43
2022-12-13T19:01:27.060Z,19.23
2022-12-13T19:03:55.503Z,20.87
2022-12-13T19:06:25.127Z,15.33
2022-12-13T19:08:55.601Z,19.37
2022-12-13T19:11:25.921Z,20.17
2022-12-13T19:13:56.102Z,17.80
2022-12-13T19:16:25.797Z,17.47
2022-12-13T19:18:54.147Z,15.17
2022-12-13T19:21:23.314Z,17.07
2022-12-13T19:23:57.368Z,18.67
2022-12-13T19:26:26.645Z,17.40
2022-12-13T19:28:58.285Z,16.20
2022-12-13T19:31:31.615Z,19.30
2022-12-13T19:34:09.750Z,18.83
2022-12-13T19:36:43.923Z,16.53
2022-12-13T19:39:12.873Z,17.93
2022-12-13T19:41:41.166Z,15.57
2022-12-13T19:44:10.751Z,17.53
2022-12-13T19:46:38.983Z,25.77
2022-12-13T19:49:07.166Z,18.57
2022-12-13T19:51:39.696Z,19.17
2022-12-13T19:54:08.242Z,17.13
2022-12-13T19:56:36.449Z,16.97
2022-12-13T19:59:05.245Z,17.77
2022-12-13T20:01:34.978Z,18.87
2022-12-13T20:04:03.150Z,20.07
2022-12-13T20:06:31.488Z,15.57
2022-12-13T20:08:59.766Z,16.77
2022-12-13T20:11:27.870Z,18.03
2022-12-13T20:13:57.911Z,17.73
2022-12-13T20:16:27.594Z,20.77
2022-12-13T20:18:58.621Z,16.63
2022-12-13T20:21:27.833Z,14.13
2022-12-13T20:23:56.440Z,18.40
2022-12-13T20:26:26.311Z,16.17
2022-12-13T20:28:54.467Z,21.30
2022-12-13T20:31:24.742Z,17.17
2022-12-13T20:33:57.288Z,19.53
2022-12-13T20:36:27.078Z,17.30
2022-12-13T20:38:56.992Z,17.27
2022-12-13T20:41:26.951Z,17.30
2022-12-13T20:43:57.006Z,16.63
2022-12-13T20:46:26.874Z,19.67
2022-12-13T20:48:57.850Z,19.80
2022-12-13T20:51:27.448Z,17.83
2022-12-13T20:53:56.520Z,16.07
2022-12-13T20:56:26.212Z,17.03
2022-12-13T20:58:54.402Z,16.23
2022-12-13T21:01:24.124Z,15.07
2022-12-13T21:03:54.672Z,17.37
2022-12-13T21:06:24.861Z,18.50
2022-12-13T21:08:53.937Z,15.90
2022-12-13T21:11:26.563Z,17.30
2022-12-13T21:14:00.990Z,19.07
2022-12-13T21:16:33.562Z,16.67
2022-12-13T21:19:02.230Z,18.27
2022-12-13T21:21:31.960Z,13.50
2022-12-13T21:24:10.988Z,16.83
2022-12-13T21:26:39.131Z,22.13
2022-12-13T21:29:10.590Z,23.47
2022-12-13T21:31:41.208Z,16.03
2022-12-13T21:34:10.060Z,13.30
2022-12-13T21:36:41.834Z,13.27
2022-12-13T21:39:13.911Z,15.33
2022-12-13T21:41:42.892Z,18.30
2022-12-13T21:44:12.350Z,16.53
2022-12-13T21:49:42.128Z,14.13
2022-12-13T21:52:18.637Z,17.30
2022-12-13T21:54:47.222Z,12.83
2022-12-13T21:57:33.752Z,13.10
2022-12-13T22:00:02.367Z,17.60
2022-12-13T22:02:33.342Z,14.00
2022-12-13T22:05:01.990Z,12.60
2022-12-13T22:07:34.190Z,13.90
2022-12-13T22:10:03.101Z,15.93
2022-12-13T22:12:34.775Z,20.33
2022-12-13T22:15:04.668Z,14.43
2022-12-13T22:17:35.990Z,14.93
2022-12-13T22:20:06.477Z,12.67
2022-12-13T22:22:37.573Z,13.93
2022-12-13T22:25:07.209Z,12.77
2022-12-13T22:27:36.061Z,13.83
2022-12-13T22:30:07.380Z,13.70
2022-12-13T22:32:36.013Z,17.63
2022-12-13T22:35:12.005Z,13.40
2022-12-13T22:37:42.352Z,15.73
2022-12-13T22:40:12.294Z,14.93
2022-12-13T22:42:40.961Z,18.27
2022-12-13T22:45:10.095Z,10.83
2022-12-13T22:47:38.543Z,13.17
2022-12-13T22:50:08.456Z,14.80
2022-12-13T22:52:38.215Z,13.30
2022-12-13T22:55:09.276Z,13.43
2022-12-13T22:57:38.140Z,11.57
2022-12-13T23:00:10.268Z,12.90
2022-12-13T23:02:39.462Z,13.33
2022-12-13T23:05:09.100Z,11.20
2022-12-13T23:07:38.119Z,13.37
2022-12-13T23:10:30.109Z,13.33
2022-12-13T23:13:03.832Z,13.90
2022-12-13T23:15:32.672Z,12.00
2022-12-13T23:18:04.183Z,10.17
2022-12-13T23:20:34.736Z,14.57
2022-12-13T23:23:03.455Z,13.27
2022-12-13T23:25:33.330Z,12.90
2022-12-13T23:28:01.723Z,13.40
2022-12-13T23:30:30.475Z,11.67
2022-12-13T23:32:59.294Z,8.90
2022-12-13T23:35:36.505Z,12.17
2022-12-13T23:38:06.294Z,13.23
2022-12-13T23:40:37.531Z,15.70
2022-12-13T23:43:07.442Z,11.73
2022-12-13T23:45:37.432Z,14.03
2022-12-13T23:48:06.383Z,12.40
2022-12-13T23:50:36.324Z,13.60
2022-12-13T23:53:04.984Z,10.70
2022-12-13T23:55:36.904Z,13.70
2022-12-13T23:58:07.825Z,11.80
